Weather at Crooked Creek Airport

Public forecast

Using degrees Fahrenheit for public forecast. Weather courtesy of forecast.io.

Closest aviation weather report (METAR) to Crooked Creek Airport

Report is more than 6 hours old.

Closest report is Sleetmute Airport, 29.3 nm (54.2 km) ESE. Retrieved 2021/06/07 05:56 UTC (13 days ago):

PASL 070556Z AUTO 00000KT 10SM BKN080 BKN120 13/06 A2993 RMK AO2 SLP126 T01280056 10200 20128 53020

Closest aviation forecast (TAF) to Crooked Creek Airport

Closest forecast is McGrath Airport, 95.8 nm (177.5 km) NE. Retrieved 2021/06/20 06:24 UTC (3 hours ago):

TAF PAMC 200523Z 2006/2106 25005KT P6SM -SHRA VCTS FEW035 BKN050CB BKN100 FM201000 VRB05KT P6SM -SHRA SCT025 OVC050 FM202100 19004KT P6SM VCSH BKN050 BKN100 AMD NOT SKED